Time;durP1;ratioP1;P1;durP2;ratioP2;P2;SDS_P1;SDS_P2;PMS_P1;PMS_P2;Temp;Humidity;BMP_temperature;BMP_pressure;BME280_temperature;BME280_humidity;BME280_pressure;Samples;Min_cycle;Max_cycle;Signal;HPM_P1;HPM_P2
2021/05/08 00:01:58;;;;;;;0.60;0.35;;;21.50;45.40;;;;;;5111742;28;20502;-40
2021/05/08 00:04:28;;;;;;;0.50;0.40;;;21.60;45.50;;;;;;5109901;28;20138;-40
2021/05/08 00:06:56;;;;;;;0.50;0.40;;;21.50;45.40;;;;;;5084194;28;20050;-39
2021/05/08 00:09:23;;;;;;;0.30;0.30;;;21.50;45.40;;;;;;5110662;28;21021;-40
2021/05/08 00:11:53;;;;;;;0.50;0.40;;;21.50;45.40;;;;;;5110031;28;20048;-40
2021/05/08 00:14:20;;;;;;;0.82;0.40;;;21.50;45.40;;;;;;5111639;27;20084;-40
2021/05/08 00:16:47;;;;;;;0.68;0.55;;;21.50;45.40;;;;;;5110410;28;20066;-40
2021/05/08 00:19:14;;;;;;;0.88;0.47;;;21.50;45.40;;;;;;5099609;28;20050;-41
2021/05/08 00:21:41;;;;;;;0.40;0.30;;;21.50;45.40;;;;;;5111224;28;20052;-41
2021/05/08 00:24:08;;;;;;;0.65;0.40;;;21.50;45.40;;;;;;5109781;28;20388;-42
2021/05/08 00:26:34;;;;;;;0.45;0.40;;;21.50;45.40;;;;;;5110738;28;20051;-40
2021/05/08 00:29:01;;;;;;;0.50;0.40;;;21.50;45.40;;;;;;5110509;28;20059;-40
2021/05/08 00:31:28;;;;;;;0.52;0.40;;;21.50;45.40;;;;;;5110672;28;20449;-40
2021/05/08 00:33:54;;;;;;;0.45;0.43;;;21.50;45.40;;;;;;5094142;28;20073;-40
2021/05/08 00:36:21;;;;;;;0.40;0.40;;;21.50;45.40;;;;;;5112511;28;20491;-40
2021/05/08 00:38:48;;;;;;;0.60;0.43;;;21.50;45.40;;;;;;5111675;28;20130;-40
2021/05/08 00:41:15;;;;;;;0.88;0.55;;;21.50;45.40;;;;;;5112005;28;20434;-40
2021/05/08 00:43:41;;;;;;;0.50;0.40;;;21.50;45.40;;;;;;5112976;28;20039;-40
2021/05/08 00:46:08;;;;;;;0.90;0.60;;;21.50;45.40;;;;;;5111763;28;20120;-48
2021/05/08 00:48:35;;;;;;;0.70;0.40;;;21.50;45.40;;;;;;5112000;28;20105;-48
2021/05/08 00:51:02;;;;;;;0.77;0.50;;;21.50;45.40;;;;;;5111687;28;20093;-44
2021/05/08 00:53:29;;;;;;;0.90;0.50;;;21.50;45.40;;;;;;5094969;28;20428;-48
2021/05/08 00:55:55;;;;;;;0.57;0.47;;;21.50;45.40;;;;;;5111632;28;20550;-43
2021/05/08 00:58:22;;;;;;;0.70;0.40;;;21.50;45.40;;;;;;5093556;28;20124;-46
2021/05/08 01:00:52;;;;;;;0.90;0.50;;;21.50;45.40;;;;;;5112000;28;20101;-46
2021/05/08 01:03:19;;;;;;;0.35;0.35;;;21.50;45.40;;;;;;5111320;28;20582;-45
2021/05/08 01:05:46;;;;;;;0.75;0.60;;;21.50;45.40;;;;;;5111566;28;20044;-48
2021/05/08 01:08:12;;;;;;;0.50;0.32;;;21.50;45.40;;;;;;5077975;28;20141;-43
2021/05/08 01:10:39;;;;;;;0.40;0.35;;;21.50;45.40;;;;;;5111504;28;20058;-42
2021/05/08 01:13:06;;;;;;;0.60;0.43;;;21.50;45.40;;;;;;5112396;28;20055;-39
2021/05/08 01:15:33;;;;;;;0.50;0.40;;;21.50;45.40;;;;;;5113582;28;20051;-40
2021/05/08 01:18:00;;;;;;;0.55;0.40;;;21.50;45.40;;;;;;5115794;28;20047;-40
2021/05/08 01:20:27;;;;;;;0.32;0.32;;;21.50;45.40;;;;;;5115112;28;20051;-41
2021/05/08 01:22:53;;;;;;;1.00;0.70;;;21.50;45.40;;;;;;5112398;28;20117;-41
2021/05/08 01:25:22;;;;;;;0.38;0.30;;;21.50;45.40;;;;;;5114576;28;20592;-40
2021/05/08 01:27:52;;;;;;;0.63;0.40;;;21.50;45.40;;;;;;5112914;27;20040;-41
2021/05/08 01:30:22;;;;;;;0.30;0.30;;;21.50;45.40;;;;;;5112893;28;20048;-41
2021/05/08 01:32:51;;;;;;;0.65;0.50;;;21.50;45.40;;;;;;5114017;28;20048;-40
2021/05/08 01:35:18;;;;;;;0.70;0.52;;;21.50;45.40;;;;;;5113322;27;20070;-40
2021/05/08 01:37:45;;;;;;;0.75;0.40;;;21.50;45.40;;;;;;5113682;28;20097;-40
2021/05/08 01:40:14;;;;;;;0.40;0.40;;;21.50;45.40;;;;;;5114052;28;20475;-40
2021/05/08 01:42:43;;;;;;;0.60;0.43;;;21.50;45.40;;;;;;5112252;28;20047;-41
2021/05/08 01:45:12;;;;;;;0.55;0.50;;;21.50;45.40;;;;;;5113511;28;20101;-40
2021/05/08 01:47:40;;;;;;;0.82;0.40;;;21.50;45.40;;;;;;5113291;28;20075;-40
2021/05/08 01:50:10;;;;;;;0.40;0.40;;;21.50;45.40;;;;;;5111452;28;20052;-40
2021/05/08 01:52:37;;;;;;;0.50;0.30;;;21.50;45.40;;;;;;5113469;28;20125;-40
2021/05/08 01:55:12;;;;;;;0.63;0.40;;;21.50;45.40;;;;;;5112268;28;20079;-40
2021/05/08 01:57:53;;;;;;;0.60;0.50;;;21.50;45.40;;;;;;5113220;28;20643;-40
2021/05/08 02:00:29;;;;;;;0.55;0.45;;;21.50;45.40;;;;;;5112796;28;20506;-40
2021/05/08 02:02:56;;;;;;;0.88;0.60;;;21.50;45.40;;;;;;5112835;28;20380;-41
2021/05/08 02:05:27;;;;;;;0.75;0.50;;;21.50;45.40;;;;;;5112848;28;20047;-40
2021/05/08 02:07:54;;;;;;;0.55;0.40;;;21.50;45.40;;;;;;5113402;28;20047;-40
2021/05/08 02:10:22;;;;;;;0.50;0.47;;;21.50;45.40;;;;;;5112359;27;20127;-46
2021/05/08 02:12:49;;;;;;;0.50;0.40;;;21.50;45.40;;;;;;5111549;28;20487;-42
2021/05/08 02:15:18;;;;;;;0.85;0.50;;;21.50;45.40;;;;;;5113310;28;20055;-42
2021/05/08 02:17:45;;;;;;;0.40;0.40;;;21.50;45.40;;;;;;5111570;28;20047;-42
2021/05/08 02:20:25;;;;;;;0.77;0.50;;;21.50;45.40;;;;;;5113413;28;20559;-41
2021/05/08 02:22:53;;;;;;;0.50;0.40;;;21.50;45.40;;;;;;5113133;28;20075;-42
2021/05/08 02:25:20;;;;;;;0.50;0.43;;;21.50;45.40;;;;;;5111169;28;20051;-42
2021/05/08 02:27:47;;;;;;;0.73;0.50;;;21.50;45.40;;;;;;5112935;27;20043;-44
2021/05/08 02:30:16;;;;;;;1.05;0.63;;;21.50;45.40;;;;;;5101041;28;20173;-41
2021/05/08 02:32:43;;;;;;;0.55;0.50;;;21.50;45.40;;;;;;5111593;28;20441;-40
2021/05/08 02:35:11;;;;;;;2.17;0.50;;;21.50;45.40;;;;;;5113027;28;20055;-41
2021/05/08 02:37:38;;;;;;;0.75;0.50;;;21.50;45.40;;;;;;5111803;28;20510;-42
2021/05/08 02:40:11;;;;;;;0.57;0.55;;;21.50;45.40;;;;;;5112391;28;20096;-40
2021/05/08 02:42:38;;;;;;;0.70;0.55;;;21.50;45.40;;;;;;5112593;28;20043;-41
2021/05/08 02:45:07;;;;;;;0.95;0.50;;;21.50;45.40;;;;;;5111041;27;20438;-41
2021/05/08 02:47:36;;;;;;;1.15;0.68;;;21.50;45.30;;;;;;5112621;28;20040;-40
2021/05/08 02:50:03;;;;;;;0.47;0.47;;;21.50;45.30;;;;;;5112313;28;20065;-40
2021/05/08 02:52:30;;;;;;;0.50;0.40;;;21.50;45.40;;;;;;5111070;27;20047;-41
2021/05/08 02:54:57;;;;;;;0.88;0.50;;;21.50;45.40;;;;;;5102418;27;20051;-40
2021/05/08 02:57:24;;;;;;;0.38;0.32;;;21.40;45.20;;;;;;5100932;28;20104;-41
2021/05/08 02:59:50;;;;;;;0.57;0.47;;;21.40;45.30;;;;;;5111609;27;20055;-40
2021/05/08 03:02:18;;;;;;;0.50;0.50;;;21.40;45.30;;;;;;5113103;28;20074;-39
2021/05/08 03:04:45;;;;;;;0.80;0.70;;;21.50;45.30;;;;;;5110188;28;20491;-40
2021/05/08 03:07:12;;;;;;;0.70;0.52;;;21.50;45.30;;;;;;5101302;28;20089;-42
2021/05/08 03:09:38;;;;;;;1.15;0.68;;;21.50;45.30;;;;;;5111660;28;20051;-41
2021/05/08 03:12:07;;;;;;;0.52;0.50;;;21.50;45.30;;;;;;5110471;28;20108;-40
2021/05/08 03:14:34;;;;;;;0.70;0.60;;;21.50;45.30;;;;;;5111580;28;20465;-41
2021/05/08 03:17:05;;;;;;;0.55;0.50;;;21.40;45.20;;;;;;5110765;28;20051;-41
2021/05/08 03:19:35;;;;;;;0.63;0.50;;;21.50;45.30;;;;;;5110255;28;20056;-41
2021/05/08 03:22:04;;;;;;;0.68;0.60;;;21.40;45.30;;;;;;5112529;28;20047;-41
2021/05/08 03:24:31;;;;;;;0.85;0.70;;;21.50;45.30;;;;;;5098712;28;20120;-40
2021/05/08 03:26:58;;;;;;;0.40;0.30;;;21.40;45.30;;;;;;5111857;28;20494;-44
2021/05/08 03:29:24;;;;;;;0.60;0.50;;;21.40;45.20;;;;;;5110732;28;20083;-40
2021/05/08 03:31:52;;;;;;;0.85;0.50;;;21.40;45.20;;;;;;5110634;28;20050;-40
2021/05/08 03:34:18;;;;;;;0.47;0.40;;;21.40;45.30;;;;;;5101534;28;20051;-41
2021/05/08 03:36:45;;;;;;;0.70;0.55;;;21.40;45.20;;;;;;5111160;28;20062;-40
2021/05/08 03:39:12;;;;;;;0.63;0.50;;;21.50;45.30;;;;;;5110584;28;20040;-40
2021/05/08 03:41:39;;;;;;;0.57;0.50;;;21.40;45.20;;;;;;5112307;27;20113;-41
2021/05/08 03:44:07;;;;;;;0.85;0.57;;;21.40;45.20;;;;;;5110575;28;20040;-41
2021/05/08 03:46:33;;;;;;;0.70;0.50;;;21.40;45.20;;;;;;5111286;28;20044;-40
2021/05/08 03:49:00;;;;;;;1.48;0.50;;;21.40;45.20;;;;;;5101294;28;20440;-40
2021/05/08 03:51:28;;;;;;;0.60;0.50;;;21.40;45.20;;;;;;5109994;28;20052;-40
2021/05/08 03:53:56;;;;;;;0.40;0.40;;;21.40;45.20;;;;;;5111166;28;20062;-40
2021/05/08 03:56:24;;;;;;;1.05;0.52;;;21.40;45.20;;;;;;5111330;28;20635;-40
2021/05/08 03:58:51;;;;;;;0.68;0.50;;;21.40;45.20;;;;;;5109686;28;20195;-40
2021/05/08 04:01:18;;;;;;;0.63;0.50;;;21.40;45.20;;;;;;5112269;27;20048;-41
2021/05/08 04:03:45;;;;;;;0.52;0.38;;;21.40;45.20;;;;;;5110603;28;20403;-40
2021/05/08 04:06:12;;;;;;;0.63;0.47;;;21.50;45.30;;;;;;5111002;28;21296;-40
2021/05/08 04:08:38;;;;;;;0.85;0.70;;;21.40;45.20;;;;;;5111405;28;20870;-40
2021/05/08 04:11:05;;;;;;;0.50;0.40;;;21.40;45.20;;;;;;5109578;28;20040;-40
2021/05/08 04:13:32;;;;;;;0.60;0.60;;;21.40;45.20;;;;;;5110816;28;20411;-42
2021/05/08 04:15:58;;;;;;;0.77;0.60;;;21.40;45.20;;;;;;5111428;28;20404;-43
2021/05/08 04:18:30;;;;;;;0.60;0.60;;;21.40;45.20;;;;;;5110505;28;20155;-45
2021/05/08 04:20:57;;;;;;;0.50;0.50;;;21.40;45.20;;;;;;5110494;28;20043;-46
2021/05/08 04:23:24;;;;;;;0.60;0.40;;;21.40;45.20;;;;;;5099781;28;20095;-42
2021/05/08 04:25:51;;;;;;;0.30;0.30;;;21.40;45.20;;;;;;5109915;28;20075;-45
2021/05/08 04:28:17;;;;;;;0.95;0.55;;;21.40;45.20;;;;;;5110676;28;20048;-45
2021/05/08 04:30:44;;;;;;;0.52;0.40;;;21.40;45.20;;;;;;5110709;28;20051;-41
2021/05/08 04:33:19;;;;;;;1.10;0.50;;;21.50;45.20;;;;;;5100029;28;20043;-40
2021/05/08 04:35:46;;;;;;;0.80;0.60;;;21.40;45.20;;;;;;5110734;28;20051;-42
2021/05/08 04:38:13;;;;;;;0.63;0.50;;;21.40;45.20;;;;;;5110670;28;20044;-41
2021/05/08 04:40:40;;;;;;;0.60;0.50;;;21.40;45.20;;;;;;5109370;28;20231;-41
2021/05/08 04:43:08;;;;;;;0.40;0.40;;;21.40;45.20;;;;;;5111086;28;20142;-40
2021/05/08 04:45:35;;;;;;;0.68;0.40;;;21.40;45.20;;;;;;5110566;28;20075;-43
2021/05/08 04:48:02;;;;;;;0.70;0.70;;;21.40;45.20;;;;;;5110037;28;20052;-41
2021/05/08 04:50:29;;;;;;;0.95;0.60;;;21.40;45.20;;;;;;5114039;28;20044;-40
2021/05/08 04:52:55;;;;;;;0.50;0.50;;;21.40;45.20;;;;;;5113961;27;20130;-45
2021/05/08 04:55:22;;;;;;;0.98;0.70;;;21.40;45.10;;;;;;5115148;28;20383;-45
2021/05/08 04:57:50;;;;;;;0.40;0.40;;;21.40;45.10;;;;;;5114483;28;20120;-42
2021/05/08 05:00:18;;;;;;;1.08;0.50;;;21.50;45.20;;;;;;5113718;28;20056;-43
2021/05/08 05:02:45;;;;;;;0.60;0.60;;;21.50;45.20;;;;;;5114442;28;20047;-42
2021/05/08 05:05:16;;;;;;;1.52;0.50;;;21.40;45.00;;;;;;5113619;28;20491;-46
2021/05/08 05:07:43;;;;;;;0.85;0.70;;;21.50;45.10;;;;;;5113932;27;20043;-41
2021/05/08 05:10:13;;;;;;;0.50;0.50;;;21.50;45.10;;;;;;5114589;28;20123;-42
2021/05/08 05:12:40;;;;;;;0.93;0.50;;;21.50;45.10;;;;;;5112861;28;20043;-44
2021/05/08 05:15:08;;;;;;;0.40;0.40;;;21.50;45.10;;;;;;5114607;27;20502;-44
2021/05/08 05:17:34;;;;;;;0.63;0.43;;;21.50;45.00;;;;;;5113384;28;20055;-41
2021/05/08 05:20:05;;;;;;;0.73;0.52;;;21.50;45.00;;;;;;5113954;27;20055;-48
2021/05/08 05:22:32;;;;;;;0.85;0.60;;;21.50;45.00;;;;;;5114572;27;20379;-45
2021/05/08 05:25:03;;;;;;;0.95;0.60;;;21.50;45.00;;;;;;5102480;28;20040;-41
2021/05/08 05:27:31;;;;;;;0.70;0.57;;;21.50;45.00;;;;;;5112860;28;20041;-42
2021/05/08 05:29:58;;;;;;;1.05;0.77;;;21.50;45.00;;;;;;5114382;28;20100;-41
2021/05/08 05:32:25;;;;;;;0.77;0.50;;;21.50;45.00;;;;;;5101140;28;20088;-41
2021/05/08 05:34:53;;;;;;;0.70;0.50;;;21.50;45.00;;;;;;5114290;27;20043;-40
2021/05/08 05:37:19;;;;;;;0.90;0.50;;;21.50;45.00;;;;;;5114084;28;20051;-42
2021/05/08 05:39:47;;;;;;;0.45;0.43;;;21.50;45.00;;;;;;5112629;27;20050;-40
2021/05/08 05:42:13;;;;;;;1.05;0.70;;;21.50;45.00;;;;;;5114160;28;20043;-40
2021/05/08 05:44:40;;;;;;;0.75;0.70;;;21.50;45.00;;;;;;5113409;28;20169;-41
2021/05/08 05:47:20;;;;;;;0.40;0.40;;;21.50;45.00;;;;;;5112909;27;20453;-44
2021/05/08 05:49:53;;;;;;;1.05;0.70;;;21.50;45.00;;;;;;5113640;28;20035;-41
2021/05/08 05:52:21;;;;;;;0.60;0.60;;;21.50;45.00;;;;;;5113015;28;20449;-40
2021/05/08 05:54:49;;;;;;;1.45;0.70;;;21.50;45.00;;;;;;5113659;27;20047;-40
2021/05/08 05:57:16;;;;;;;0.60;0.60;;;21.50;45.00;;;;;;5113489;28;20120;-42
2021/05/08 05:59:44;;;;;;;0.55;0.50;;;21.50;45.00;;;;;;5112119;28;20525;-40
2021/05/08 06:02:11;;;;;;;0.55;0.50;;;21.50;45.00;;;;;;5101572;28;20512;-42
2021/05/08 06:04:38;;;;;;;0.63;0.50;;;21.50;45.00;;;;;;5113702;28;20558;-40
2021/05/08 06:07:05;;;;;;;1.35;0.68;;;21.50;45.00;;;;;;5111144;28;20102;-41
2021/05/08 06:09:32;;;;;;;0.77;0.50;;;21.50;45.00;;;;;;5113148;28;20540;-40
2021/05/08 06:11:59;;;;;;;0.63;0.57;;;21.50;44.90;;;;;;5112753;28;20039;-40
2021/05/08 06:14:26;;;;;;;0.70;0.50;;;21.50;44.90;;;;;;5111720;28;20059;-41
2021/05/08 06:16:56;;;;;;;0.50;0.50;;;21.50;45.00;;;;;;5113046;28;20052;-40
2021/05/08 06:19:26;;;;;;;0.47;0.40;;;21.50;45.00;;;;;;5112318;28;20055;-40
2021/05/08 06:21:53;;;;;;;0.85;0.60;;;21.50;45.00;;;;;;5102008;28;20042;-42
2021/05/08 06:24:20;;;;;;;0.60;0.40;;;21.50;45.00;;;;;;5113213;28;20047;-42
2021/05/08 06:26:46;;;;;;;0.82;0.60;;;21.50;45.00;;;;;;5102862;28;20043;-41
2021/05/08 06:29:13;;;;;;;0.75;0.60;;;21.50;44.90;;;;;;5112730;28;20384;-42
2021/05/08 06:31:39;;;;;;;0.70;0.45;;;21.50;45.00;;;;;;5101606;28;20048;-40
2021/05/08 06:34:06;;;;;;;0.65;0.57;;;21.50;44.90;;;;;;5111268;28;20145;-42
2021/05/08 06:36:33;;;;;;;0.98;0.68;;;21.50;45.00;;;;;;5112944;28;20047;-41
2021/05/08 06:39:00;;;;;;;0.90;0.57;;;21.50;44.90;;;;;;5111712;28;20047;-42
2021/05/08 06:41:26;;;;;;;0.95;0.70;;;21.50;44.90;;;;;;5112761;27;20052;-45
2021/05/08 06:43:53;;;;;;;0.70;0.50;;;21.50;45.00;;;;;;5112749;28;20096;-41
2021/05/08 06:46:19;;;;;;;0.93;0.50;;;21.50;44.90;;;;;;5111090;28;20495;-41
2021/05/08 06:48:46;;;;;;;0.73;0.52;;;21.50;44.90;;;;;;5113619;27;20043;-40
2021/05/08 06:51:13;;;;;;;1.13;0.88;;;21.50;44.90;;;;;;5112388;28;20048;-43
2021/05/08 06:53:41;;;;;;;0.45;0.38;;;21.50;44.90;;;;;;5110530;28;20100;-41
2021/05/08 06:56:07;;;;;;;0.80;0.65;;;21.50;44.90;;;;;;5112769;28;20384;-40
2021/05/08 06:58:34;;;;;;;0.80;0.55;;;21.50;44.90;;;;;;5111717;28;20051;-42
2021/05/08 07:01:01;;;;;;;0.57;0.52;;;21.50;44.90;;;;;;5111125;28;20047;-40
2021/05/08 07:03:28;;;;;;;1.02;0.50;;;21.50;44.90;;;;;;5111975;28;20051;-40
2021/05/08 07:05:54;;;;;;;0.70;0.50;;;21.50;44.90;;;;;;5110651;28;20134;-41
2021/05/08 07:08:21;;;;;;;0.90;0.80;;;21.50;44.80;;;;;;5111934;28;20117;-41
2021/05/08 07:10:50;;;;;;;0.82;0.60;;;21.50;44.80;;;;;;5111848;28;20055;-40
2021/05/08 07:13:17;;;;;;;0.93;0.57;;;21.50;44.80;;;;;;5099297;28;20059;-41
2021/05/08 07:15:57;;;;;;;0.80;0.50;;;21.50;44.80;;;;;;5112530;27;20183;-43
2021/05/08 07:18:26;;;;;;;0.57;0.40;;;21.50;44.80;;;;;;5112232;28;20048;-43
2021/05/08 07:20:53;;;;;;;0.65;0.60;;;21.50;44.80;;;;;;5110862;28;20050;-40
2021/05/08 07:23:20;;;;;;;1.17;0.70;;;21.50;44.80;;;;;;5111459;27;20135;-41
2021/05/08 07:25:50;;;;;;;0.80;0.70;;;21.50;44.70;;;;;;5110875;28;20039;-42
2021/05/08 07:28:21;;;;;;;1.02;0.70;;;21.50;44.70;;;;;;5110247;28;20048;-42
2021/05/08 07:30:50;;;;;;;0.63;0.50;;;21.50;44.70;;;;;;5112412;27;20452;-40
2021/05/08 07:33:17;;;;;;;0.60;0.60;;;21.50;44.70;;;;;;5110839;28;20055;-41
2021/05/08 07:35:45;;;;;;;0.82;0.50;;;21.50;44.70;;;;;;5100775;28;20051;-41
2021/05/08 07:38:12;;;;;;;0.57;0.50;;;21.50;44.70;;;;;;5112064;28;20048;-41
2021/05/08 07:40:40;;;;;;;0.82;0.63;;;21.50;44.70;;;;;;5110617;28;20548;-49
2021/05/08 07:43:10;;;;;;;0.40;0.40;;;21.50;44.70;;;;;;5111619;28;20044;-46
2021/05/08 07:45:40;;;;;;;1.48;0.70;;;21.50;44.70;;;;;;5111303;28;20139;-48
2021/05/08 07:48:07;;;;;;;0.88;0.60;;;21.50;44.70;;;;;;5109779;28;20515;-45
2021/05/08 07:50:34;;;;;;;0.65;0.50;;;21.50;44.70;;;;;;5111711;28;20534;-44
2021/05/08 07:53:00;;;;;;;1.00;0.60;;;21.50;44.70;;;;;;5110041;28;20075;-49
2021/05/08 07:55:27;;;;;;;1.00;0.60;;;21.60;44.70;;;;;;5110768;28;20452;-48
2021/05/08 07:57:54;;;;;;;0.82;0.70;;;21.50;44.60;;;;;;5111723;28;20055;-47
2021/05/08 08:00:22;;;;;;;0.93;0.70;;;21.60;44.60;;;;;;5109348;28;20063;-45
2021/05/08 08:02:52;;;;;;;0.50;0.40;;;21.50;44.50;;;;;;5111519;28;20071;-46
2021/05/08 08:05:19;;;;;;;0.82;0.60;;;21.60;44.60;;;;;;5111365;28;20116;-46
2021/05/08 08:07:46;;;;;;;0.40;0.40;;;21.50;44.50;;;;;;5109774;28;20407;-43
2021/05/08 08:10:13;;;;;;;1.63;0.80;;;21.50;44.50;;;;;;5111398;28;20040;-42
2021/05/08 08:12:40;;;;;;;0.60;0.50;;;21.50;44.50;;;;;;5110247;28;20138;-41
2021/05/08 08:15:10;;;;;;;0.60;0.47;;;21.60;44.50;;;;;;5110403;27;20062;-41
2021/05/08 08:17:37;;;;;;;1.13;0.70;;;21.50;44.50;;;;;;5111485;28;20043;-41
2021/05/08 08:20:06;;;;;;;0.88;0.60;;;21.50;44.50;;;;;;5109978;28;20047;-41
2021/05/08 08:22:32;;;;;;;1.33;0.93;;;21.50;44.40;;;;;;5110331;28;20062;-41
2021/05/08 08:25:00;;;;;;;0.80;0.60;;;21.60;44.50;;;;;;5110498;28;20909;-41
2021/05/08 08:27:26;;;;;;;0.80;0.65;;;21.60;44.50;;;;;;5109382;28;20377;-40
2021/05/08 08:29:53;;;;;;;1.00;0.70;;;21.50;44.40;;;;;;5084560;28;20044;-42
2021/05/08 08:32:20;;;;;;;0.95;0.70;;;21.60;44.50;;;;;;5110017;28;20048;-42
2021/05/08 08:34:47;;;;;;;0.65;0.50;;;21.60;44.40;;;;;;5110125;28;20040;-41
2021/05/08 08:37:14;;;;;;;0.88;0.60;;;21.60;44.50;;;;;;5111048;28;20410;-40
2021/05/08 08:39:41;;;;;;;0.85;0.70;;;21.60;44.40;;;;;;5110251;28;20048;-41
2021/05/08 08:42:08;;;;;;;0.70;0.60;;;21.60;44.50;;;;;;5110172;28;20544;-42
2021/05/08 08:44:36;;;;;;;1.08;0.68;;;21.60;44.50;;;;;;5111347;28;20052;-41
2021/05/08 08:47:04;;;;;;;0.90;0.68;;;21.60;44.40;;;;;;5110080;28;20047;-41
2021/05/08 08:49:32;;;;;;;0.75;0.65;;;21.60;44.40;;;;;;5110914;28;20429;-42
2021/05/08 08:51:58;;;;;;;0.70;0.70;;;21.60;44.40;;;;;;5110180;28;20044;-40
2021/05/08 08:54:25;;;;;;;0.80;0.63;;;21.60;44.40;;;;;;5109584;28;20088;-40
2021/05/08 08:56:53;;;;;;;1.27;0.70;;;21.60;44.40;;;;;;5111299;28;20051;-39
2021/05/08 09:01:47;;;;;;;0.70;0.60;;;21.60;44.40;;;;;;5109538;28;20039;-40
2021/05/08 09:04:15;;;;;;;1.38;0.60;;;21.60;44.40;;;;;;5111678;28;20050;-40
2021/05/08 09:06:44;;;;;;;0.65;0.50;;;21.60;44.50;;;;;;5109563;28;20091;-40
2021/05/08 09:09:12;;;;;;;0.90;0.60;;;21.60;44.40;;;;;;5110194;28;20040;-39
2021/05/08 09:11:47;;;;;;;0.80;0.50;;;21.60;44.40;;;;;;5109944;28;20077;-39
2021/05/08 09:14:18;;;;;;;0.90;0.50;;;21.60;44.40;;;;;;5108633;28;20457;-41
2021/05/08 09:17:14;;;;;;;0.70;0.52;;;21.60;44.40;;;;;;5109633;28;20112;-40
2021/05/08 09:20:08;;;;;;;1.02;0.70;;;21.60;44.40;;;;;;5111052;28;20175;-40
2021/05/08 09:22:40;;;;;;;1.10;0.63;;;21.60;44.40;;;;;;5106900;28;20051;-40
2021/05/08 09:25:14;;;;;;;0.80;0.50;;;21.60;44.40;;;;;;5110005;28;20044;-40
2021/05/08 09:27:53;;;;;;;0.63;0.50;;;21.60;44.40;;;;;;5110798;28;20457;-41
2021/05/08 09:30:24;;;;;;;0.73;0.65;;;21.60;44.40;;;;;;5109358;28;20047;-42
2021/05/08 09:32:55;;;;;;;0.65;0.60;;;21.60;44.40;;;;;;5109451;28;20036;-41
2021/05/08 09:35:28;;;;;;;1.05;0.60;;;21.60;44.40;;;;;;5099645;28;20560;-39
2021/05/08 09:38:17;;;;;;;0.73;0.57;;;21.60;45.00;;;;;;5112540;28;20572;-42
2021/05/08 09:40:48;;;;;;;1.55;0.90;;;21.60;44.40;;;;;;5113447;28;20069;-41
2021/05/08 09:43:16;;;;;;;0.73;0.63;;;21.60;44.40;;;;;;5114361;27;20066;-41
2021/05/08 09:45:47;;;;;;;0.68;0.65;;;21.60;44.40;;;;;;5113143;28;20043;-41
2021/05/08 09:48:18;;;;;;;0.50;0.45;;;21.60;44.40;;;;;;5114605;27;20093;-40
2021/05/08 09:51:28;;;;;;;0.70;0.50;;;21.60;44.40;;;;;;5114052;28;20388;-41
2021/05/08 09:54:08;;;;;;;1.17;0.77;;;21.60;44.40;;;;;;5112910;28;20093;-41
2021/05/08 09:57:00;;;;;;;0.85;0.70;;;21.60;44.40;;;;;;5102528;28;20044;-40
2021/05/08 09:59:37;;;;;;;0.80;0.60;;;21.60;44.30;;;;;;5111013;28;20419;-40
2021/05/08 10:02:07;;;;;;;0.63;0.52;;;21.60;44.30;;;;;;5113239;28;20052;-40
2021/05/08 10:04:51;;;;;;;0.82;0.50;;;21.60;44.30;;;;;;5111919;28;20491;-41
2021/05/08 10:07:25;;;;;;;0.73;0.45;;;21.60;44.30;;;;;;5113480;28;20039;-39
2021/05/08 10:09:59;;;;;;;0.80;0.70;;;21.60;44.30;;;;;;5101552;28;20043;-40
2021/05/08 10:12:27;;;;;;;0.90;0.70;;;21.60;44.30;;;;;;5110980;27;20423;-40
2021/05/08 10:14:56;;;;;;;1.02;0.70;;;21.60;44.30;;;;;;5103542;28;20916;-40
2021/05/08 10:17:27;;;;;;;1.48;0.63;;;21.60;44.30;;;;;;5112721;28;20051;-40
2021/05/08 10:20:04;;;;;;;1.17;0.65;;;21.60;44.30;;;;;;5111893;28;20131;-40
2021/05/08 10:22:40;;;;;;;0.60;0.60;;;21.60;44.30;;;;;;5103271;28;20476;-40
2021/05/08 10:25:08;;;;;;;1.00;0.70;;;21.60;44.30;;;;;;5113616;27;20066;-40
2021/05/08 10:27:34;;;;;;;1.15;0.60;;;21.60;44.30;;;;;;5112436;27;20129;-40
2021/05/08 10:30:05;;;;;;;0.65;0.55;;;21.60;44.30;;;;;;5113506;28;20416;-39
2021/05/08 10:32:32;;;;;;;0.70;0.43;;;21.60;44.30;;;;;;5111621;28;20189;-40
2021/05/08 10:35:03;;;;;;;0.90;0.60;;;21.70;44.30;;;;;;5112762;28;20050;-39
2021/05/08 10:37:30;;;;;;;0.93;0.60;;;21.60;44.30;;;;;;5112989;28;20047;-39
2021/05/08 10:40:10;;;;;;;0.77;0.60;;;21.60;44.30;;;;;;5111028;28;20035;-40
2021/05/08 10:42:50;;;;;;;0.63;0.50;;;21.60;44.90;;;;;;5111976;28;20040;-40
2021/05/08 10:45:22;;;;;;;1.00;0.70;;;21.60;44.30;;;;;;5113145;28;20054;-39
2021/05/08 10:50:26;;;;;;;2.17;0.60;;;21.70;44.30;;;;;;5113572;27;20044;-40
2021/05/08 10:53:06;;;;;;;1.23;0.63;;;21.60;44.30;;;;;;5100609;28;20466;-40
2021/05/08 10:55:53;;;;;;;0.73;0.60;;;21.70;44.30;;;;;;5111268;28;20051;-41
2021/05/08 10:58:20;;;;;;;0.73;0.60;;;21.60;44.20;;;;;;5111525;28;20048;-41
2021/05/08 11:00:51;;;;;;;1.10;0.70;;;21.60;44.30;;;;;;5112467;28;20055;-40
2021/05/08 11:03:25;;;;;;;0.65;0.50;;;21.60;44.20;;;;;;5110847;28;20043;-40
2021/05/08 11:06:04;;;;;;;1.27;0.70;;;21.70;44.30;;;;;;5112246;28;20547;-43
2021/05/08 11:08:30;;;;;;;0.95;0.60;;;21.60;44.20;;;;;;5112606;28;20051;-46
2021/05/08 11:11:00;;;;;;;0.70;0.50;;;21.70;44.30;;;;;;5111608;27;20151;-47
2021/05/08 11:13:28;;;;;;;1.10;0.68;;;21.70;44.30;;;;;;5111365;28;20052;-49
2021/05/08 11:15:55;;;;;;;0.80;0.60;;;21.70;44.30;;;;;;5111045;28;20084;-49
2021/05/08 11:18:33;;;;;;;1.23;0.80;;;21.60;44.20;;;;;;5111296;27;20105;-47
2021/05/08 11:21:15;;;;;;;0.50;0.50;;;21.60;44.20;;;;;;5111772;28;20063;-44
2021/05/08 11:23:51;;;;;;;1.30;0.60;;;21.70;44.30;;;;;;5111034;28;20097;-43
2021/05/08 11:26:28;;;;;;;0.77;0.60;;;21.70;44.30;;;;;;5111845;27;20059;-41
2021/05/08 11:29:36;;;;;;;0.63;0.50;;;21.60;44.20;;;;;;5112122;27;20047;-44
2021/05/08 11:32:04;;;;;;;0.73;0.52;;;21.60;44.20;;;;;;5065732;28;20052;-44
2021/05/08 11:34:32;;;;;;;0.90;0.63;;;21.60;44.20;;;;;;5060806;28;20045;-40
2021/05/08 11:37:01;;;;;;;1.10;0.60;;;21.60;44.20;;;;;;5067003;28;20591;-47
2021/05/08 11:39:36;;;;;;;0.90;0.70;;;21.60;44.20;;;;;;5062827;28;20068;-46
2021/05/08 11:42:18;;;;;;;1.00;0.60;;;21.60;44.20;;;;;;5062306;28;20431;-44
2021/05/08 11:44:46;;;;;;;0.70;0.50;;;21.60;44.20;;;;;;5065616;28;20056;-40
2021/05/08 11:50:08;;;;;;;0.90;0.52;;;21.60;44.20;;;;;;5061341;28;20047;-44
2021/05/08 11:52:42;;;;;;;1.15;0.70;;;21.60;44.20;;;;;;5065225;28;20134;-42
2021/05/08 11:55:20;;;;;;;0.65;0.50;;;21.70;44.30;;;;;;5048836;28;20040;-40
2021/05/08 11:57:57;;;;;;;0.52;0.50;;;21.60;44.20;;;;;;5061250;28;20048;-44
2021/05/08 12:00:32;;;;;;;0.60;0.60;;;21.60;44.20;;;;;;5064349;28;20163;-41
2021/05/08 12:03:10;;;;;;;0.75;0.70;;;21.60;44.20;;;;;;5089547;28;20047;-42
2021/05/08 12:05:38;;;;;;;0.55;0.43;;;21.60;44.20;;;;;;5108849;28;20094;-41
2021/05/08 12:08:08;;;;;;;0.60;0.60;;;21.70;44.30;;;;;;5110700;28;20070;-41
2021/05/08 12:10:43;;;;;;;0.93;0.60;;;21.60;44.20;;;;;;5110130;28;20058;-42
2021/05/08 12:13:11;;;;;;;0.70;0.57;;;21.60;44.20;;;;;;5098268;28;20594;-41
2021/05/08 12:15:39;;;;;;;0.77;0.65;;;21.60;44.20;;;;;;5111205;28;20043;-43
2021/05/08 12:18:07;;;;;;;0.70;0.68;;;21.60;44.20;;;;;;5110694;28;20476;-42
2021/05/08 12:20:45;;;;;;;0.68;0.55;;;21.70;44.30;;;;;;5109622;28;20048;-44
2021/05/08 12:23:20;;;;;;;0.98;0.75;;;21.60;44.20;;;;;;5111339;28;20048;-41
2021/05/08 12:26:05;;;;;;;1.60;0.68;;;21.70;44.30;;;;;;5109819;28;20535;-41
2021/05/08 12:28:38;;;;;;;0.60;0.50;;;21.70;44.30;;;;;;5110608;28;20044;-44
2021/05/08 12:31:31;;;;;;;0.85;0.50;;;21.70;44.30;;;;;;5110720;28;20491;-41
2021/05/08 12:34:08;;;;;;;1.00;0.63;;;21.60;44.20;;;;;;5110275;28;20085;-43
2021/05/08 12:36:36;;;;;;;1.13;0.70;;;21.60;44.20;;;;;;5108555;28;20054;-41
2021/05/08 12:39:20;;;;;;;1.63;0.68;;;21.70;44.40;;;;;;5111966;28;20098;-41
2021/05/08 12:42:03;;;;;;;0.73;0.50;;;21.70;44.50;;;;;;5110102;28;20100;-42
2021/05/08 12:44:32;;;;;;;0.88;0.60;;;21.70;44.50;;;;;;5097058;28;20055;-44
2021/05/08 12:47:20;;;;;;;0.82;0.70;;;21.70;44.50;;;;;;5111694;28;20047;-41
2021/05/08 12:50:07;;;;;;;0.63;0.52;;;21.60;44.40;;;;;;5110600;28;20055;-41
2021/05/08 12:52:35;;;;;;;0.50;0.50;;;21.70;44.50;;;;;;5109444;28;20046;-41
2021/05/08 12:55:04;;;;;;;0.93;0.70;;;21.60;44.40;;;;;;5110508;28;20035;-40
2021/05/08 12:57:39;;;;;;;1.58;0.40;;;21.70;44.40;;;;;;5109783;28;20132;-44
2021/05/08 13:00:17;;;;;;;0.98;0.65;;;21.70;44.40;;;;;;5109731;28;20044;-41
2021/05/08 13:02:46;;;;;;;1.02;0.60;;;21.70;44.40;;;;;;5110771;28;20054;-41
2021/05/08 13:05:16;;;;;;;0.77;0.60;;;21.70;44.40;;;;;;5109759;28;20051;-41
2021/05/08 13:08:01;;;;;;;0.80;0.50;;;21.70;44.40;;;;;;5099171;28;20076;-41
2021/05/08 13:10:33;;;;;;;2.65;0.80;;;21.70;44.40;;;;;;5112167;28;20035;-39